sensor_id;sensor_type;location;lat;lon;timestamp;P1;durP1;ratioP1;P2;durP2;ratioP2
27039;SDS011;14589;51.578;7.306;2024-03-17T00:02:25;35.33;;;12.85;;
27039;SDS011;14589;51.578;7.306;2024-03-17T00:04:55;27.15;;;12.65;;
27039;SDS011;14589;51.578;7.306;2024-03-17T00:07:25;29.67;;;12.05;;
27039;SDS011;14589;51.578;7.306;2024-03-17T00:09:56;26.83;;;9.85;;
27039;SDS011;14589;51.578;7.306;2024-03-17T00:12:26;25.38;;;9.90;;
27039;SDS011;14589;51.578;7.306;2024-03-17T00:14:57;28.30;;;11.35;;
27039;SDS011;14589;51.578;7.306;2024-03-17T00:17:27;28.38;;;9.30;;
27039;SDS011;14589;51.578;7.306;2024-03-17T00:19:59;28.98;;;11.35;;
27039;SDS011;14589;51.578;7.306;2024-03-17T00:22:31;20.08;;;9.20;;
27039;SDS011;14589;51.578;7.306;2024-03-17T00:25:07;18.95;;;7.10;;
27039;SDS011;14589;51.578;7.306;2024-03-17T00:27:38;17.35;;;6.93;;
27039;SDS011;14589;51.578;7.306;2024-03-17T00:30:11;17.48;;;7.68;;
27039;SDS011;14589;51.578;7.306;2024-03-17T00:32:45;13.38;;;5.13;;
27039;SDS011;14589;51.578;7.306;2024-03-17T00:35:16;15.88;;;6.80;;
27039;SDS011;14589;51.578;7.306;2024-03-17T00:37:50;9.88;;;5.95;;
27039;SDS011;14589;51.578;7.306;2024-03-17T00:40:21;8.57;;;3.78;;
27039;SDS011;14589;51.578;7.306;2024-03-17T00:42:51;8.75;;;3.90;;
27039;SDS011;14589;51.578;7.306;2024-03-17T00:45:24;8.10;;;3.88;;
27039;SDS011;14589;51.578;7.306;2024-03-17T00:47:54;7.85;;;3.60;;
27039;SDS011;14589;51.578;7.306;2024-03-17T00:50:24;8.82;;;3.97;;
27039;SDS011;14589;51.578;7.306;2024-03-17T00:52:55;8.88;;;4.53;;
27039;SDS011;14589;51.578;7.306;2024-03-17T00:55:25;10.30;;;5.72;;
27039;SDS011;14589;51.578;7.306;2024-03-17T00:57:56;9.90;;;4.15;;
27039;SDS011;14589;51.578;7.306;2024-03-17T01:00:26;7.70;;;4.43;;
27039;SDS011;14589;51.578;7.306;2024-03-17T01:02:57;6.22;;;2.55;;
27039;SDS011;14589;51.578;7.306;2024-03-17T01:05:27;7.32;;;3.30;;
27039;SDS011;14589;51.578;7.306;2024-03-17T01:07:57;6.38;;;3.50;;
27039;SDS011;14589;51.578;7.306;2024-03-17T01:10:28;7.88;;;3.65;;
27039;SDS011;14589;51.578;7.306;2024-03-17T01:13:00;5.95;;;2.88;;
27039;SDS011;14589;51.578;7.306;2024-03-17T01:15:30;6.90;;;2.50;;
27039;SDS011;14589;51.578;7.306;2024-03-17T01:18:00;6.88;;;2.97;;
27039;SDS011;14589;51.578;7.306;2024-03-17T01:20:31;4.93;;;2.20;;
27039;SDS011;14589;51.578;7.306;2024-03-17T01:23:04;4.88;;;3.13;;
27039;SDS011;14589;51.578;7.306;2024-03-17T01:25:35;6.20;;;2.10;;
27039;SDS011;14589;51.578;7.306;2024-03-17T01:28:08;7.57;;;2.78;;
27039;SDS011;14589;51.578;7.306;2024-03-17T01:30:39;4.82;;;2.20;;
27039;SDS011;14589;51.578;7.306;2024-03-17T01:33:09;3.75;;;2.38;;
27039;SDS011;14589;51.578;7.306;2024-03-17T01:35:40;2.75;;;1.70;;
27039;SDS011;14589;51.578;7.306;2024-03-17T01:38:11;8.35;;;2.33;;
27039;SDS011;14589;51.578;7.306;2024-03-17T01:40:41;5.63;;;1.98;;
27039;SDS011;14589;51.578;7.306;2024-03-17T01:43:12;5.15;;;1.73;;
27039;SDS011;14589;51.578;7.306;2024-03-17T01:45:43;6.53;;;1.80;;
27039;SDS011;14589;51.578;7.306;2024-03-17T01:48:14;4.10;;;1.52;;
27039;SDS011;14589;51.578;7.306;2024-03-17T01:53:19;3.17;;;2.25;;
27039;SDS011;14589;51.578;7.306;2024-03-17T01:55:50;5.55;;;1.33;;
27039;SDS011;14589;51.578;7.306;2024-03-17T01:58:26;3.78;;;1.63;;
27039;SDS011;14589;51.578;7.306;2024-03-17T02:00:59;5.03;;;1.17;;
27039;SDS011;14589;51.578;7.306;2024-03-17T02:03:31;4.70;;;2.15;;
27039;SDS011;14589;51.578;7.306;2024-03-17T02:06:01;3.75;;;1.35;;
27039;SDS011;14589;51.578;7.306;2024-03-17T02:08:46;4.30;;;2.30;;
27039;SDS011;14589;51.578;7.306;2024-03-17T02:11:27;4.93;;;1.45;;
27039;SDS011;14589;51.578;7.306;2024-03-17T02:14:02;3.42;;;1.23;;
27039;SDS011;14589;51.578;7.306;2024-03-17T02:16:32;3.47;;;2.40;;
27039;SDS011;14589;51.578;7.306;2024-03-17T02:19:03;4.70;;;1.67;;
27039;SDS011;14589;51.578;7.306;2024-03-17T02:21:34;4.72;;;1.30;;
27039;SDS011;14589;51.578;7.306;2024-03-17T02:24:04;2.42;;;1.35;;
27039;SDS011;14589;51.578;7.306;2024-03-17T02:26:34;3.67;;;1.00;;
27039;SDS011;14589;51.578;7.306;2024-03-17T02:29:05;5.00;;;1.63;;
27039;SDS011;14589;51.578;7.306;2024-03-17T02:31:36;2.83;;;1.45;;
27039;SDS011;14589;51.578;7.306;2024-03-17T02:34:06;2.33;;;1.13;;
27039;SDS011;14589;51.578;7.306;2024-03-17T02:36:36;3.70;;;1.75;;
27039;SDS011;14589;51.578;7.306;2024-03-17T02:39:07;6.03;;;1.10;;
27039;SDS011;14589;51.578;7.306;2024-03-17T02:41:56;4.15;;;1.73;;
27039;SDS011;14589;51.578;7.306;2024-03-17T02:44:27;3.45;;;1.27;;
27039;SDS011;14589;51.578;7.306;2024-03-17T02:47:00;5.07;;;1.63;;
27039;SDS011;14589;51.578;7.306;2024-03-17T02:49:34;4.72;;;1.65;;
27039;SDS011;14589;51.578;7.306;2024-03-17T02:52:09;4.50;;;1.60;;
27039;SDS011;14589;51.578;7.306;2024-03-17T02:54:41;3.03;;;1.98;;
27039;SDS011;14589;51.578;7.306;2024-03-17T02:57:12;5.03;;;1.20;;
27039;SDS011;14589;51.578;7.306;2024-03-17T02:59:42;2.78;;;0.75;;
27039;SDS011;14589;51.578;7.306;2024-03-17T03:02:13;10.15;;;1.83;;
27039;SDS011;14589;51.578;7.306;2024-03-17T03:04:43;4.60;;;1.63;;
27039;SDS011;14589;51.578;7.306;2024-03-17T03:07:14;8.02;;;1.58;;
27039;SDS011;14589;51.578;7.306;2024-03-17T03:09:44;3.85;;;1.50;;
27039;SDS011;14589;51.578;7.306;2024-03-17T03:12:15;8.02;;;1.65;;
27039;SDS011;14589;51.578;7.306;2024-03-17T03:14:46;6.78;;;2.00;;
27039;SDS011;14589;51.578;7.306;2024-03-17T03:17:17;4.40;;;2.05;;
27039;SDS011;14589;51.578;7.306;2024-03-17T03:19:48;4.15;;;1.88;;
27039;SDS011;14589;51.578;7.306;2024-03-17T03:22:18;4.88;;;2.17;;
27039;SDS011;14589;51.578;7.306;2024-03-17T03:24:51;4.45;;;2.13;;
27039;SDS011;14589;51.578;7.306;2024-03-17T03:27:23;4.22;;;1.95;;
27039;SDS011;14589;51.578;7.306;2024-03-17T03:29:54;6.78;;;2.08;;
27039;SDS011;14589;51.578;7.306;2024-03-17T03:32:26;5.57;;;2.25;;
27039;SDS011;14589;51.578;7.306;2024-03-17T03:34:56;4.72;;;1.90;;
27039;SDS011;14589;51.578;7.306;2024-03-17T03:37:27;5.30;;;2.38;;
27039;SDS011;14589;51.578;7.306;2024-03-17T03:39:57;7.47;;;2.10;;
27039;SDS011;14589;51.578;7.306;2024-03-17T03:42:28;4.75;;;2.97;;
27039;SDS011;14589;51.578;7.306;2024-03-17T03:44:59;4.72;;;2.15;;
27039;SDS011;14589;51.578;7.306;2024-03-17T03:47:29;4.05;;;1.92;;
27039;SDS011;14589;51.578;7.306;2024-03-17T03:49:59;6.38;;;2.90;;
27039;SDS011;14589;51.578;7.306;2024-03-17T03:52:30;8.60;;;3.00;;
27039;SDS011;14589;51.578;7.306;2024-03-17T03:55:00;4.70;;;2.20;;
27039;SDS011;14589;51.578;7.306;2024-03-17T03:57:31;4.35;;;2.30;;
27039;SDS011;14589;51.578;7.306;2024-03-17T04:00:05;3.45;;;2.40;;
27039;SDS011;14589;51.578;7.306;2024-03-17T04:02:42;5.50;;;2.03;;
27039;SDS011;14589;51.578;7.306;2024-03-17T04:05:13;7.03;;;1.90;;
27039;SDS011;14589;51.578;7.306;2024-03-17T04:07:43;7.30;;;2.03;;
27039;SDS011;14589;51.578;7.306;2024-03-17T04:10:16;5.60;;;2.55;;
27039;SDS011;14589;51.578;7.306;2024-03-17T04:12:49;2.97;;;1.52;;
27039;SDS011;14589;51.578;7.306;2024-03-17T04:15:19;5.65;;;3.13;;
27039;SDS011;14589;51.578;7.306;2024-03-17T04:17:50;5.15;;;1.80;;
27039;SDS011;14589;51.578;7.306;2024-03-17T04:20:20;3.33;;;1.58;;
27039;SDS011;14589;51.578;7.306;2024-03-17T04:22:51;6.35;;;3.05;;
27039;SDS011;14589;51.578;7.306;2024-03-17T04:25:22;6.45;;;3.35;;
27039;SDS011;14589;51.578;7.306;2024-03-17T04:27:53;5.55;;;2.70;;
27039;SDS011;14589;51.578;7.306;2024-03-17T04:30:23;5.70;;;2.65;;
27039;SDS011;14589;51.578;7.306;2024-03-17T04:32:53;7.35;;;3.15;;
27039;SDS011;14589;51.578;7.306;2024-03-17T04:35:24;5.85;;;2.17;;
27039;SDS011;14589;51.578;7.306;2024-03-17T04:37:54;6.53;;;2.60;;
27039;SDS011;14589;51.578;7.306;2024-03-17T04:40:27;5.80;;;3.58;;
27039;SDS011;14589;51.578;7.306;2024-03-17T04:42:57;8.55;;;2.85;;
27039;SDS011;14589;51.578;7.306;2024-03-17T04:45:28;8.43;;;2.70;;
27039;SDS011;14589;51.578;7.306;2024-03-17T04:47:58;7.15;;;2.90;;
27039;SDS011;14589;51.578;7.306;2024-03-17T04:50:28;6.60;;;3.20;;
27039;SDS011;14589;51.578;7.306;2024-03-17T04:53:02;6.72;;;2.45;;
27039;SDS011;14589;51.578;7.306;2024-03-17T04:55:32;5.63;;;3.05;;
27039;SDS011;14589;51.578;7.306;2024-03-17T04:58:03;5.93;;;3.72;;
27039;SDS011;14589;51.578;7.306;2024-03-17T05:00:33;5.18;;;2.03;;
27039;SDS011;14589;51.578;7.306;2024-03-17T05:03:04;5.93;;;3.17;;
27039;SDS011;14589;51.578;7.306;2024-03-17T05:05:34;6.38;;;2.50;;
27039;SDS011;14589;51.578;7.306;2024-03-17T05:08:04;5.35;;;2.38;;
27039;SDS011;14589;51.578;7.306;2024-03-17T05:10:35;5.15;;;2.88;;
27039;SDS011;14589;51.578;7.306;2024-03-17T05:13:05;5.32;;;2.25;;
27039;SDS011;14589;51.578;7.306;2024-03-17T05:15:36;7.65;;;2.75;;
27039;SDS011;14589;51.578;7.306;2024-03-17T05:18:07;5.95;;;2.30;;
27039;SDS011;14589;51.578;7.306;2024-03-17T05:20:38;6.97;;;2.65;;
27039;SDS011;14589;51.578;7.306;2024-03-17T05:23:08;5.13;;;2.85;;
27039;SDS011;14589;51.578;7.306;2024-03-17T05:25:38;5.63;;;3.15;;
27039;SDS011;14589;51.578;7.306;2024-03-17T05:28:09;5.53;;;2.45;;
27039;SDS011;14589;51.578;7.306;2024-03-17T05:30:39;6.10;;;2.50;;
27039;SDS011;14589;51.578;7.306;2024-03-17T05:33:09;9.60;;;2.50;;
27039;SDS011;14589;51.578;7.306;2024-03-17T05:35:40;3.38;;;2.03;;
27039;SDS011;14589;51.578;7.306;2024-03-17T05:38:10;4.88;;;2.15;;
27039;SDS011;14589;51.578;7.306;2024-03-17T05:40:40;5.05;;;2.42;;
27039;SDS011;14589;51.578;7.306;2024-03-17T05:43:11;2.92;;;2.15;;
27039;SDS011;14589;51.578;7.306;2024-03-17T05:45:42;7.13;;;1.90;;
27039;SDS011;14589;51.578;7.306;2024-03-17T05:48:14;4.43;;;2.22;;
27039;SDS011;14589;51.578;7.306;2024-03-17T05:50:44;4.15;;;2.35;;
27039;SDS011;14589;51.578;7.306;2024-03-17T05:53:15;4.85;;;2.15;;
27039;SDS011;14589;51.578;7.306;2024-03-17T05:55:45;3.20;;;1.92;;
27039;SDS011;14589;51.578;7.306;2024-03-17T05:58:16;5.18;;;1.75;;
27039;SDS011;14589;51.578;7.306;2024-03-17T06:00:46;6.90;;;2.33;;
27039;SDS011;14589;51.578;7.306;2024-03-17T06:03:17;5.25;;;2.00;;
27039;SDS011;14589;51.578;7.306;2024-03-17T06:05:47;3.38;;;1.63;;
27039;SDS011;14589;51.578;7.306;2024-03-17T06:08:18;4.05;;;1.77;;
27039;SDS011;14589;51.578;7.306;2024-03-17T06:10:49;4.13;;;1.88;;
27039;SDS011;14589;51.578;7.306;2024-03-17T06:13:19;4.18;;;2.20;;
27039;SDS011;14589;51.578;7.306;2024-03-17T06:15:50;4.28;;;2.20;;
27039;SDS011;14589;51.578;7.306;2024-03-17T06:18:20;5.75;;;2.78;;
27039;SDS011;14589;51.578;7.306;2024-03-17T06:20:50;5.07;;;0.93;;
27039;SDS011;14589;51.578;7.306;2024-03-17T06:23:21;4.45;;;2.53;;
27039;SDS011;14589;51.578;7.306;2024-03-17T06:25:51;7.80;;;2.55;;
27039;SDS011;14589;51.578;7.306;2024-03-17T06:28:22;5.43;;;1.92;;
27039;SDS011;14589;51.578;7.306;2024-03-17T06:30:56;7.13;;;2.53;;
27039;SDS011;14589;51.578;7.306;2024-03-17T06:33:32;8.75;;;1.90;;
27039;SDS011;14589;51.578;7.306;2024-03-17T06:36:03;7.43;;;2.15;;
27039;SDS011;14589;51.578;7.306;2024-03-17T06:38:34;4.03;;;2.30;;
27039;SDS011;14589;51.578;7.306;2024-03-17T06:41:04;3.08;;;1.02;;
27039;SDS011;14589;51.578;7.306;2024-03-17T06:43:35;7.50;;;2.67;;
27039;SDS011;14589;51.578;7.306;2024-03-17T06:46:05;5.18;;;1.63;;
27039;SDS011;14589;51.578;7.306;2024-03-17T06:48:37;6.28;;;3.88;;
27039;SDS011;14589;51.578;7.306;2024-03-17T06:51:08;6.13;;;2.33;;
27039;SDS011;14589;51.578;7.306;2024-03-17T06:53:38;4.88;;;2.28;;
27039;SDS011;14589;51.578;7.306;2024-03-17T06:56:08;8.27;;;4.20;;
27039;SDS011;14589;51.578;7.306;2024-03-17T06:58:39;7.07;;;3.17;;
27039;SDS011;14589;51.578;7.306;2024-03-17T07:01:09;7.70;;;3.65;;
27039;SDS011;14589;51.578;7.306;2024-03-17T07:03:40;11.73;;;4.07;;
27039;SDS011;14589;51.578;7.306;2024-03-17T07:06:10;8.52;;;4.63;;
27039;SDS011;14589;51.578;7.306;2024-03-17T07:08:41;6.55;;;3.97;;
27039;SDS011;14589;51.578;7.306;2024-03-17T07:11:12;11.55;;;4.35;;
27039;SDS011;14589;51.578;7.306;2024-03-17T07:13:42;5.95;;;3.47;;
27039;SDS011;14589;51.578;7.306;2024-03-17T07:16:13;7.40;;;2.88;;
27039;SDS011;14589;51.578;7.306;2024-03-17T07:18:43;9.18;;;4.25;;
27039;SDS011;14589;51.578;7.306;2024-03-17T07:21:14;7.00;;;3.75;;
27039;SDS011;14589;51.578;7.306;2024-03-17T07:23:44;8.30;;;4.97;;
27039;SDS011;14589;51.578;7.306;2024-03-17T07:26:15;10.60;;;4.70;;
27039;SDS011;14589;51.578;7.306;2024-03-17T07:28:45;9.85;;;4.18;;
27039;SDS011;14589;51.578;7.306;2024-03-17T07:31:15;9.77;;;4.63;;
27039;SDS011;14589;51.578;7.306;2024-03-17T07:33:46;11.88;;;4.28;;
27039;SDS011;14589;51.578;7.306;2024-03-17T07:36:16;11.15;;;3.40;;
27039;SDS011;14589;51.578;7.306;2024-03-17T07:38:47;10.73;;;4.78;;
27039;SDS011;14589;51.578;7.306;2024-03-17T07:41:17;7.13;;;3.38;;
27039;SDS011;14589;51.578;7.306;2024-03-17T07:43:49;8.95;;;4.55;;
27039;SDS011;14589;51.578;7.306;2024-03-17T07:46:20;8.75;;;3.92;;
27039;SDS011;14589;51.578;7.306;2024-03-17T07:48:50;7.35;;;3.88;;
27039;SDS011;14589;51.578;7.306;2024-03-17T07:51:21;9.93;;;3.80;;
27039;SDS011;14589;51.578;7.306;2024-03-17T07:53:52;8.48;;;4.00;;
27039;SDS011;14589;51.578;7.306;2024-03-17T07:56:23;6.60;;;3.45;;
27039;SDS011;14589;51.578;7.306;2024-03-17T07:58:54;8.07;;;2.90;;
27039;SDS011;14589;51.578;7.306;2024-03-17T08:01:24;7.35;;;4.38;;
27039;SDS011;14589;51.578;7.306;2024-03-17T08:03:55;9.20;;;3.85;;
27039;SDS011;14589;51.578;7.306;2024-03-17T08:06:25;8.18;;;4.25;;
27039;SDS011;14589;51.578;7.306;2024-03-17T08:08:56;6.15;;;2.53;;
27039;SDS011;14589;51.578;7.306;2024-03-17T08:11:27;5.55;;;3.13;;
27039;SDS011;14589;51.578;7.306;2024-03-17T08:13:57;8.43;;;4.05;;
27039;SDS011;14589;51.578;7.306;2024-03-17T08:16:27;4.25;;;1.45;;
27039;SDS011;14589;51.578;7.306;2024-03-17T08:18:59;6.95;;;3.63;;
27039;SDS011;14589;51.578;7.306;2024-03-17T08:21:30;7.88;;;3.35;;
27039;SDS011;14589;51.578;7.306;2024-03-17T08:24:00;4.75;;;2.50;;
27039;SDS011;14589;51.578;7.306;2024-03-17T08:26:30;6.80;;;3.13;;
27039;SDS011;14589;51.578;7.306;2024-03-17T08:29:01;4.85;;;2.83;;
27039;SDS011;14589;51.578;7.306;2024-03-17T08:31:31;7.22;;;3.22;;
27039;SDS011;14589;51.578;7.306;2024-03-17T08:34:02;7.88;;;3.30;;
27039;SDS011;14589;51.578;7.306;2024-03-17T08:36:32;6.88;;;2.70;;
27039;SDS011;14589;51.578;7.306;2024-03-17T08:39:03;9.48;;;2.75;;
27039;SDS011;14589;51.578;7.306;2024-03-17T08:41:33;9.25;;;4.60;;
27039;SDS011;14589;51.578;7.306;2024-03-17T08:44:04;5.88;;;2.33;;
27039;SDS011;14589;51.578;7.306;2024-03-17T08:46:36;6.47;;;2.03;;
27039;SDS011;14589;51.578;7.306;2024-03-17T08:49:06;6.20;;;3.03;;
27039;SDS011;14589;51.578;7.306;2024-03-17T08:51:37;10.18;;;2.30;;
27039;SDS011;14589;51.578;7.306;2024-03-17T08:54:07;6.13;;;1.60;;
27039;SDS011;14589;51.578;7.306;2024-03-17T08:56:37;6.50;;;2.72;;
27039;SDS011;14589;51.578;7.306;2024-03-17T08:59:08;7.35;;;1.73;;
27039;SDS011;14589;51.578;7.306;2024-03-17T09:01:40;6.47;;;1.83;;
27039;SDS011;14589;51.578;7.306;2024-03-17T09:04:11;3.83;;;1.38;;
27039;SDS011;14589;51.578;7.306;2024-03-17T09:06:41;4.32;;;1.77;;
27039;SDS011;14589;51.578;7.306;2024-03-17T09:09:12;6.40;;;1.90;;
27039;SDS011;14589;51.578;7.306;2024-03-17T09:11:44;4.43;;;1.83;;
27039;SDS011;14589;51.578;7.306;2024-03-17T09:14:14;3.47;;;1.85;;
27039;SDS011;14589;51.578;7.306;2024-03-17T09:16:44;6.20;;;1.80;;
27039;SDS011;14589;51.578;7.306;2024-03-17T09:19:16;3.83;;;2.03;;
27039;SDS011;14589;51.578;7.306;2024-03-17T09:21:46;6.65;;;3.50;;
27039;SDS011;14589;51.578;7.306;2024-03-17T09:24:17;4.72;;;1.52;;
27039;SDS011;14589;51.578;7.306;2024-03-17T09:26:48;4.65;;;1.98;;
27039;SDS011;14589;51.578;7.306;2024-03-17T09:29:18;2.63;;;1.23;;
27039;SDS011;14589;51.578;7.306;2024-03-17T09:31:49;3.65;;;1.20;;
27039;SDS011;14589;51.578;7.306;2024-03-17T09:34:19;7.03;;;3.42;;
27039;SDS011;14589;51.578;7.306;2024-03-17T09:36:50;4.00;;;1.23;;
27039;SDS011;14589;51.578;7.306;2024-03-17T09:39:20;2.50;;;0.98;;
27039;SDS011;14589;51.578;7.306;2024-03-17T09:41:51;6.82;;;1.13;;
27039;SDS011;14589;51.578;7.306;2024-03-17T09:44:21;3.83;;;2.13;;
27039;SDS011;14589;51.578;7.306;2024-03-17T09:46:52;5.38;;;0.90;;
27039;SDS011;14589;51.578;7.306;2024-03-17T09:49:22;6.57;;;1.38;;
27039;SDS011;14589;51.578;7.306;2024-03-17T09:51:53;3.17;;;1.08;;
27039;SDS011;14589;51.578;7.306;2024-03-17T09:54:28;4.80;;;1.67;;
27039;SDS011;14589;51.578;7.306;2024-03-17T09:56:58;3.70;;;1.10;;
27039;SDS011;14589;51.578;7.306;2024-03-17T09:59:29;6.78;;;3.28;;
27039;SDS011;14589;51.578;7.306;2024-03-17T10:01:59;3.00;;;0.93;;
27039;SDS011;14589;51.578;7.306;2024-03-17T10:04:32;5.28;;;3.38;;
27039;SDS011;14589;51.578;7.306;2024-03-17T10:07:04;3.22;;;0.85;;
27039;SDS011;14589;51.578;7.306;2024-03-17T10:09:34;4.38;;;1.33;;
27039;SDS011;14589;51.578;7.306;2024-03-17T10:12:04;4.22;;;2.33;;
27039;SDS011;14589;51.578;7.306;2024-03-17T10:14:36;4.38;;;1.75;;
27039;SDS011;14589;51.578;7.306;2024-03-17T10:17:06;8.20;;;4.57;;
27039;SDS011;14589;51.578;7.306;2024-03-17T10:19:37;3.17;;;2.33;;
27039;SDS011;14589;51.578;7.306;2024-03-17T10:22:11;9.95;;;6.57;;
27039;SDS011;14589;51.578;7.306;2024-03-17T10:24:42;3.20;;;1.35;;
27039;SDS011;14589;51.578;7.306;2024-03-17T10:27:12;5.63;;;1.77;;
27039;SDS011;14589;51.578;7.306;2024-03-17T10:29:43;3.28;;;1.88;;
27039;SDS011;14589;51.578;7.306;2024-03-17T10:32:15;3.78;;;1.27;;
27039;SDS011;14589;51.578;7.306;2024-03-17T10:34:49;3.97;;;1.40;;
27039;SDS011;14589;51.578;7.306;2024-03-17T10:37:20;2.38;;;0.77;;
27039;SDS011;14589;51.578;7.306;2024-03-17T10:39:54;2.15;;;1.05;;
27039;SDS011;14589;51.578;7.306;2024-03-17T10:42:26;3.17;;;1.98;;
27039;SDS011;14589;51.578;7.306;2024-03-17T10:44:58;2.22;;;0.80;;
27039;SDS011;14589;51.578;7.306;2024-03-17T10:47:29;3.47;;;1.17;;
27039;SDS011;14589;51.578;7.306;2024-03-17T10:49:59;1.60;;;0.65;;
27039;SDS011;14589;51.578;7.306;2024-03-17T10:52:34;2.47;;;1.10;;
27039;SDS011;14589;51.578;7.306;2024-03-17T10:55:07;1.80;;;0.50;;
27039;SDS011;14589;51.578;7.306;2024-03-17T10:57:45;2.70;;;1.48;;
27039;SDS011;14589;51.578;7.306;2024-03-17T11:00:20;1.85;;;0.30;;
27039;SDS011;14589;51.578;7.306;2024-03-17T11:02:52;4.97;;;1.10;;
27039;SDS011;14589;51.578;7.306;2024-03-17T11:05:26;3.17;;;0.90;;
27039;SDS011;14589;51.578;7.306;2024-03-17T11:08:03;3.25;;;2.30;;
27039;SDS011;14589;51.578;7.306;2024-03-17T11:10:36;3.05;;;1.25;;
27039;SDS011;14589;51.578;7.306;2024-03-17T11:13:22;3.42;;;1.58;;
27039;SDS011;14589;51.578;7.306;2024-03-17T11:15:56;6.22;;;2.17;;
27039;SDS011;14589;51.578;7.306;2024-03-17T11:18:29;3.75;;;0.60;;
27039;SDS011;14589;51.578;7.306;2024-03-17T11:21:03;3.97;;;1.52;;
27039;SDS011;14589;51.578;7.306;2024-03-17T11:23:40;7.10;;;3.30;;
27039;SDS011;14589;51.578;7.306;2024-03-17T11:26:12;5.03;;;1.90;;
27039;SDS011;14589;51.578;7.306;2024-03-17T11:28:56;4.72;;;2.42;;
27039;SDS011;14589;51.578;7.306;2024-03-17T11:31:32;3.55;;;1.30;;
27039;SDS011;14589;51.578;7.306;2024-03-17T11:34:04;3.47;;;1.80;;
27039;SDS011;14589;51.578;7.306;2024-03-17T11:36:38;5.15;;;0.63;;
27039;SDS011;14589;51.578;7.306;2024-03-17T11:39:09;3.22;;;1.48;;
27039;SDS011;14589;51.578;7.306;2024-03-17T11:42:04;3.72;;;0.95;;
27039;SDS011;14589;51.578;7.306;2024-03-17T11:44:44;2.25;;;1.38;;
27039;SDS011;14589;51.578;7.306;2024-03-17T11:47:35;2.05;;;0.82;;
27039;SDS011;14589;51.578;7.306;2024-03-17T11:50:10;5.20;;;0.73;;
27039;SDS011;14589;51.578;7.306;2024-03-17T11:52:42;6.95;;;1.38;;
27039;SDS011;14589;51.578;7.306;2024-03-17T11:55:17;2.08;;;1.10;;
27039;SDS011;14589;51.578;7.306;2024-03-17T11:57:54;3.08;;;0.80;;
27039;SDS011;14589;51.578;7.306;2024-03-17T12:00:26;4.32;;;0.85;;
27039;SDS011;14589;51.578;7.306;2024-03-17T12:02:56;2.60;;;0.30;;
27039;SDS011;14589;51.578;7.306;2024-03-17T12:05:28;2.85;;;0.75;;
27039;SDS011;14589;51.578;7.306;2024-03-17T12:07:58;2.03;;;0.90;;
27039;SDS011;14589;51.578;7.306;2024-03-17T12:10:29;5.05;;;1.70;;
27039;SDS011;14589;51.578;7.306;2024-03-17T12:13:00;2.92;;;1.85;;
27039;SDS011;14589;51.578;7.306;2024-03-17T12:15:30;5.03;;;1.42;;
27039;SDS011;14589;51.578;7.306;2024-03-17T12:18:01;2.70;;;0.82;;
27039;SDS011;14589;51.578;7.306;2024-03-17T12:20:33;2.00;;;0.90;;
27039;SDS011;14589;51.578;7.306;2024-03-17T12:23:03;2.13;;;0.40;;
27039;SDS011;14589;51.578;7.306;2024-03-17T12:25:34;2.45;;;0.82;;
27039;SDS011;14589;51.578;7.306;2024-03-17T12:28:04;2.58;;;1.30;;
27039;SDS011;14589;51.578;7.306;2024-03-17T12:30:46;2.08;;;0.30;;
27039;SDS011;14589;51.578;7.306;2024-03-17T12:33:17;2.08;;;1.17;;
27039;SDS011;14589;51.578;7.306;2024-03-17T12:35:47;1.70;;;0.75;;
27039;SDS011;14589;51.578;7.306;2024-03-17T12:38:21;2.85;;;0.38;;
27039;SDS011;14589;51.578;7.306;2024-03-17T12:40:52;2.08;;;0.85;;
27039;SDS011;14589;51.578;7.306;2024-03-17T12:43:23;1.75;;;0.30;;
27039;SDS011;14589;51.578;7.306;2024-03-17T12:45:55;4.93;;;1.38;;
27039;SDS011;14589;51.578;7.306;2024-03-17T12:48:26;3.70;;;1.05;;
27039;SDS011;14589;51.578;7.306;2024-03-17T12:50:56;1.80;;;0.75;;
27039;SDS011;14589;51.578;7.306;2024-03-17T12:53:27;2.55;;;1.13;;
27039;SDS011;14589;51.578;7.306;2024-03-17T12:55:57;3.65;;;2.00;;
27039;SDS011;14589;51.578;7.306;2024-03-17T12:58:46;2.60;;;1.55;;
27039;SDS011;14589;51.578;7.306;2024-03-17T13:01:35;4.50;;;0.90;;
27039;SDS011;14589;51.578;7.306;2024-03-17T13:04:05;4.70;;;0.77;;
27039;SDS011;14589;51.578;7.306;2024-03-17T13:06:38;3.97;;;0.60;;
27039;SDS011;14589;51.578;7.306;2024-03-17T13:09:08;3.92;;;1.17;;
27039;SDS011;14589;51.578;7.306;2024-03-17T13:11:40;3.85;;;0.47;;
27039;SDS011;14589;51.578;7.306;2024-03-17T13:14:10;1.98;;;0.60;;
27039;SDS011;14589;51.578;7.306;2024-03-17T13:16:45;3.97;;;0.68;;
27039;SDS011;14589;51.578;7.306;2024-03-17T13:19:16;2.50;;;0.57;;
27039;SDS011;14589;51.578;7.306;2024-03-17T13:21:47;2.67;;;0.52;;
27039;SDS011;14589;51.578;7.306;2024-03-17T13:24:17;2.58;;;1.17;;
27039;SDS011;14589;51.578;7.306;2024-03-17T13:26:47;3.30;;;1.00;;
27039;SDS011;14589;51.578;7.306;2024-03-17T13:29:19;3.17;;;0.88;;
27039;SDS011;14589;51.578;7.306;2024-03-17T13:31:49;5.00;;;2.38;;
27039;SDS011;14589;51.578;7.306;2024-03-17T13:34:21;2.00;;;0.50;;
27039;SDS011;14589;51.578;7.306;2024-03-17T13:36:54;2.88;;;0.88;;
27039;SDS011;14589;51.578;7.306;2024-03-17T13:39:28;2.65;;;1.02;;
27039;SDS011;14589;51.578;7.306;2024-03-17T13:42:01;1.60;;;0.35;;
27039;SDS011;14589;51.578;7.306;2024-03-17T13:44:34;2.20;;;0.73;;
27039;SDS011;14589;51.578;7.306;2024-03-17T13:47:05;1.73;;;0.20;;
27039;SDS011;14589;51.578;7.306;2024-03-17T13:49:35;2.45;;;0.95;;
27039;SDS011;14589;51.578;7.306;2024-03-17T13:52:06;2.88;;;1.33;;
27039;SDS011;14589;51.578;7.306;2024-03-17T13:54:37;1.95;;;0.75;;
27039;SDS011;14589;51.578;7.306;2024-03-17T13:57:08;2.22;;;0.30;;
27039;SDS011;14589;51.578;7.306;2024-03-17T13:59:38;4.55;;;1.13;;
27039;SDS011;14589;51.578;7.306;2024-03-17T14:02:12;5.15;;;1.42;;
27039;SDS011;14589;51.578;7.306;2024-03-17T14:04:44;3.05;;;0.80;;
27039;SDS011;14589;51.578;7.306;2024-03-17T14:07:14;3.08;;;1.17;;
27039;SDS011;14589;51.578;7.306;2024-03-17T14:09:45;1.95;;;0.85;;
27039;SDS011;14589;51.578;7.306;2024-03-17T14:12:15;1.95;;;0.40;;
27039;SDS011;14589;51.578;7.306;2024-03-17T14:14:45;6.93;;;1.40;;
27039;SDS011;14589;51.578;7.306;2024-03-17T14:17:16;2.40;;;1.05;;
27039;SDS011;14589;51.578;7.306;2024-03-17T14:19:46;1.98;;;0.40;;
27039;SDS011;14589;51.578;7.306;2024-03-17T14:22:17;1.80;;;0.73;;
27039;SDS011;14589;51.578;7.306;2024-03-17T14:24:47;2.28;;;0.60;;
27039;SDS011;14589;51.578;7.306;2024-03-17T14:29:51;2.28;;;0.77;;
27039;SDS011;14589;51.578;7.306;2024-03-17T14:32:21;2.40;;;0.43;;
27039;SDS011;14589;51.578;7.306;2024-03-17T14:34:51;1.20;;;0.80;;
27039;SDS011;14589;51.578;7.306;2024-03-17T14:37:22;2.05;;;1.33;;
27039;SDS011;14589;51.578;7.306;2024-03-17T14:39:52;2.17;;;0.88;;
27039;SDS011;14589;51.578;7.306;2024-03-17T14:42:23;3.00;;;0.57;;
27039;SDS011;14589;51.578;7.306;2024-03-17T14:44:54;2.38;;;0.68;;
27039;SDS011;14589;51.578;7.306;2024-03-17T14:47:25;3.13;;;0.30;;
27039;SDS011;14589;51.578;7.306;2024-03-17T14:49:56;1.20;;;0.50;;
27039;SDS011;14589;51.578;7.306;2024-03-17T14:52:26;3.42;;;1.23;;
27039;SDS011;14589;51.578;7.306;2024-03-17T14:54:57;1.48;;;0.43;;
27039;SDS011;14589;51.578;7.306;2024-03-17T14:57:27;4.95;;;0.98;;
27039;SDS011;14589;51.578;7.306;2024-03-17T14:59:58;3.92;;;1.00;;
27039;SDS011;14589;51.578;7.306;2024-03-17T15:02:28;1.55;;;0.80;;
27039;SDS011;14589;51.578;7.306;2024-03-17T15:04:59;1.88;;;1.13;;
27039;SDS011;14589;51.578;7.306;2024-03-17T15:07:29;2.90;;;0.35;;
27039;SDS011;14589;51.578;7.306;2024-03-17T15:10:00;4.60;;;0.60;;
27039;SDS011;14589;51.578;7.306;2024-03-17T15:12:30;2.47;;;1.50;;
27039;SDS011;14589;51.578;7.306;2024-03-17T15:15:00;1.27;;;0.30;;
27039;SDS011;14589;51.578;7.306;2024-03-17T15:17:31;1.65;;;0.63;;